Time;durP1;ratioP1;P1;durP2;ratioP2;P2;SDS_P1;SDS_P2;PMS_P1;PMS_P2;Temp;Humidity;BMP_temperature;BMP_pressure;BME280_temperature;BME280_humidity;BME280_pressure;Samples;Min_cycle;Max_cycle;Signal;HPM_P1;HPM_P2
2023/12/01 00:00:59;;;;;;;18.17;10.68;;;;;;;2.22;100.00;91169.59;2580795;22;20004;-84
2023/12/01 00:02:00;;;;;;;20.00;11.55;;;;;;;2.07;100.00;91171.09;2580891;22;20000;-82
2023/12/01 00:03:02;;;;;;;18.10;11.63;;;;;;;2.04;100.00;91169.25;2581455;22;20443;-83
2023/12/01 00:04:03;;;;;;;20.92;11.30;;;;;;;2.05;100.00;91173.38;2568643;22;20004;-83
2023/12/01 00:05:04;;;;;;;17.20;10.63;;;;;;;2.03;100.00;91173.06;2593984;22;20004;-83
2023/12/01 00:06:06;;;;;;;18.00;10.13;;;;;;;1.95;100.00;91172.47;2593885;22;20012;-85
2023/12/01 00:07:07;;;;;;;16.83;10.52;;;;;;;2.05;100.00;91176.00;2591700;22;20008;-85
2023/12/01 00:08:08;;;;;;;17.33;10.98;;;;;;;2.13;100.00;91180.72;2581143;22;20617;-85
2023/12/01 00:09:09;;;;;;;17.02;10.52;;;;;;;2.19;100.00;91181.69;2581133;22;20020;-86
2023/12/01 00:10:11;;;;;;;16.10;10.82;;;;;;;2.25;100.00;91179.34;2580811;22;20008;-84
2023/12/01 00:11:12;;;;;;;16.23;10.02;;;;;;;2.20;100.00;91177.94;2581029;22;20008;-85
2023/12/01 00:12:13;;;;;;;17.83;10.52;;;;;;;2.23;100.00;91173.72;2580777;23;20004;-82
2023/12/01 00:13:14;;;;;;;21.15;10.93;;;;;;;2.26;100.00;91181.56;2580979;22;20003;-84
2023/12/01 00:14:15;;;;;;;21.88;11.45;;;;;;;2.26;100.00;91189.47;2594165;22;19999;-83
2023/12/01 00:15:16;;;;;;;19.33;10.95;;;;;;;2.30;100.00;91186.00;2593800;22;20487;-82
2023/12/01 00:16:17;;;;;;;21.33;11.23;;;;;;;2.26;100.00;91178.19;2580602;22;20008;-82
2023/12/01 00:17:18;;;;;;;19.13;11.18;;;;;;;2.17;100.00;91185.91;2593532;22;20651;-84
2023/12/01 00:18:19;;;;;;;18.35;10.68;;;;;;;2.13;100.00;91188.63;2581255;22;20008;-85
2023/12/01 00:19:21;;;;;;;17.45;10.73;;;;;;;2.13;100.00;91187.88;2592537;22;20501;-84
2023/12/01 00:20:22;;;;;;;19.23;10.70;;;;;;;2.09;100.00;91187.22;2593436;22;20007;-83
2023/12/01 00:21:23;;;;;;;15.18;10.00;;;;;;;2.09;100.00;91197.75;2580239;22;20000;-85
2023/12/01 00:22:24;;;;;;;15.43;9.75;;;;;;;2.13;100.00;91195.78;2580874;22;20004;-84
2023/12/01 00:23:25;;;;;;;15.60;10.02;;;;;;;2.15;100.00;91194.25;2568560;22;20007;-86
2023/12/01 00:24:26;;;;;;;17.25;10.07;;;;;;;1.96;100.00;91195.00;2568758;23;20076;-85
2023/12/01 00:25:27;;;;;;;17.65;10.07;;;;;;;2.00;100.00;91196.41;2593253;22;20316;-84
2023/12/01 00:26:28;;;;;;;16.90;9.63;;;;;;;2.10;100.00;91199.22;2580675;23;20004;-83
2023/12/01 00:27:29;;;;;;;17.73;10.95;;;;;;;1.85;100.00;91191.88;2568303;22;20689;-85
2023/12/01 00:28:30;;;;;;;16.27;10.70;;;;;;;2.02;100.00;91188.13;2581266;22;20004;-85
2023/12/01 00:29:31;;;;;;;16.38;10.70;;;;;;;2.06;100.00;91196.66;2568266;22;20027;-84
2023/12/01 00:30:32;;;;;;;18.30;10.32;;;;;;;2.07;100.00;91194.81;2580934;22;20360;-86
2023/12/01 00:31:33;;;;;;;16.75;11.18;;;;;;;2.00;100.00;91203.59;2592127;22;20098;-85
2023/12/01 00:32:34;;;;;;;18.48;11.57;;;;;;;2.11;100.00;91200.72;2593256;22;20004;-85
2023/12/01 00:33:35;;;;;;;19.77;12.82;;;;;;;2.05;100.00;91192.56;2568554;23;20458;-84
2023/12/01 00:34:36;;;;;;;16.88;12.00;;;;;;;2.12;100.00;91195.06;2581745;22;20296;-84
2023/12/01 00:35:39;;;;;;;16.50;10.50;;;;;;;2.26;100.00;91197.38;2581423;23;20624;-84
2023/12/01 00:36:40;;;;;;;16.27;11.00;;;;;;;2.33;100.00;91195.72;2570039;22;20008;-84
2023/12/01 00:37:41;;;;;;;16.50;10.75;;;;;;;2.27;100.00;91198.84;2569592;22;20020;-84
2023/12/01 00:38:42;;;;;;;15.20;10.25;;;;;;;2.33;100.00;91199.13;2594929;22;20592;-83
2023/12/01 00:39:43;;;;;;;13.82;10.20;;;;;;;2.34;100.00;91187.41;2594591;22;20004;-82
2023/12/01 00:40:44;;;;;;;14.70;9.77;;;;;;;2.34;100.00;91184.03;2569388;22;20005;-84
2023/12/01 00:41:45;;;;;;;16.20;10.63;;;;;;;2.25;100.00;91185.34;2568931;22;20135;-82
2023/12/01 00:42:45;;;;;;;17.15;11.55;;;;;;;2.23;100.00;91186.91;2569534;22;20001;-82
2023/12/01 00:43:49;;;;;;;16.20;10.82;;;;;;;2.33;100.00;91179.91;2581008;22;20483;-82
2023/12/01 00:44:50;;;;;;;16.98;10.65;;;;;;;2.23;100.00;91182.38;2595143;22;20095;-84
2023/12/01 00:45:51;;;;;;;16.50;10.55;;;;;;;2.26;100.00;91180.81;2581374;22;20000;-82
2023/12/01 00:46:52;;;;;;;16.23;10.63;;;;;;;2.30;100.00;91186.75;2580575;22;20091;-83
2023/12/01 00:47:52;;;;;;;16.88;10.88;;;;;;;2.37;100.00;91175.28;2580705;22;20066;-83
2023/12/01 00:48:53;;;;;;;14.13;10.10;;;;;;;2.27;100.00;91171.75;2592852;22;20014;-82
2023/12/01 00:49:54;;;;;;;15.52;10.25;;;;;;;2.34;100.00;91171.59;2579990;23;20031;-83
2023/12/01 00:50:55;;;;;;;15.00;9.57;;;;;;;2.34;100.00;91179.50;2579519;23;20090;-84
2023/12/01 00:51:59;;;;;;;13.82;9.23;;;;;;;2.38;100.00;91174.16;2580988;22;20479;-82
2023/12/01 00:53:00;;;;;;;16.13;10.50;;;;;;;2.37;100.00;91172.66;2569510;22;20075;-82
2023/12/01 00:54:01;;;;;;;15.27;10.60;;;;;;;2.39;100.00;91173.75;2594241;22;20075;-84
2023/12/01 00:55:02;;;;;;;16.00;10.70;;;;;;;2.40;100.00;91171.84;2593642;22;20010;-83
2023/12/01 00:56:03;;;;;;;14.88;10.27;;;;;;;2.34;100.00;91186.69;2580126;23;20057;-84
2023/12/01 00:57:04;;;;;;;16.17;10.60;;;;;;;2.33;100.00;91175.41;2581217;22;20992;-83
2023/12/01 00:58:05;;;;;;;12.85;9.60;;;;;;;2.24;100.00;91178.59;2593921;22;20489;-83
2023/12/01 00:59:06;;;;;;;14.93;10.25;;;;;;;2.33;100.00;91177.25;2606184;22;19999;-83
2023/12/01 01:00:07;;;;;;;14.38;10.38;;;;;;;2.34;100.00;91184.03;2593941;22;20026;-83
2023/12/01 01:01:08;;;;;;;13.68;9.73;;;;;;;2.41;100.00;91175.97;2581282;22;20038;-84
2023/12/01 01:02:10;;;;;;;13.95;9.88;;;;;;;2.45;100.00;91177.34;2580922;22;20011;-83
2023/12/01 01:03:11;;;;;;;16.92;11.35;;;;;;;2.41;100.00;91175.97;2593701;22;20000;-83
2023/12/01 01:04:12;;;;;;;16.67;10.20;;;;;;;2.41;100.00;91179.34;2606951;22;20053;-84
2023/12/01 01:05:13;;;;;;;13.98;10.18;;;;;;;2.51;100.00;91175.72;2606955;22;19999;-82
2023/12/01 01:06:14;;;;;;;15.00;9.98;;;;;;;2.46;100.00;91175.47;2593905;22;20054;-83
2023/12/01 01:07:16;;;;;;;18.98;11.90;;;;;;;2.50;100.00;91181.41;2592535;22;20007;-83
2023/12/01 01:08:17;;;;;;;17.42;11.77;;;;;;;2.43;100.00;91181.56;2581053;23;20031;-82
2023/12/01 01:09:18;;;;;;;19.42;12.50;;;;;;;2.43;100.00;91173.66;2581482;22;20000;-83
2023/12/01 01:10:19;;;;;;;18.10;12.05;;;;;;;2.39;100.00;91176.38;2594145;22;20019;-83
2023/12/01 01:11:20;;;;;;;16.73;11.27;;;;;;;2.51;100.00;91169.72;2594224;22;19999;-84
2023/12/01 01:12:23;;;;;;;17.48;10.65;;;;;;;2.45;100.00;91169.44;2581634;22;20000;-83
2023/12/01 01:13:26;;;;;;;17.10;10.80;;;;;;;2.45;100.00;91174.72;2594877;22;20442;-83
2023/12/01 01:14:27;;;;;;;15.65;10.35;;;;;;;2.52;100.00;91171.94;2582416;22;20004;-82
2023/12/01 01:15:28;;;;;;;16.67;11.05;;;;;;;2.45;100.00;91177.34;2581825;23;20384;-86
2023/12/01 01:16:30;;;;;;;18.40;11.32;;;;;;;2.44;100.00;91175.88;2594466;22;20449;-84
2023/12/01 01:17:34;;;;;;;15.23;10.40;;;;;;;2.44;100.00;91185.69;2606921;22;20018;-84
2023/12/01 01:18:35;;;;;;;14.95;9.85;;;;;;;2.38;100.00;91188.09;2594269;22;20635;-86
2023/12/01 01:19:36;;;;;;;18.50;11.40;;;;;;;2.40;100.00;91179.75;2567863;23;20000;-85
2023/12/01 01:20:37;;;;;;;21.05;12.20;;;;;;;2.38;100.00;91180.16;2581025;23;20007;-83
2023/12/01 01:21:38;;;;;;;19.50;11.73;;;;;;;2.37;100.00;91191.09;2567900;23;20080;-83
2023/12/01 01:22:39;;;;;;;19.45;12.23;;;;;;;2.39;100.00;91186.19;2581719;22;20004;-85
2023/12/01 01:23:40;;;;;;;20.45;12.77;;;;;;;2.37;100.00;91188.47;2581463;22;20007;-85
2023/12/01 01:24:41;;;;;;;16.52;11.48;;;;;;;2.41;100.00;91183.88;2594440;22;20146;-84
2023/12/01 01:25:42;;;;;;;18.60;11.68;;;;;;;2.40;100.00;91196.31;2594308;22;20003;-83
2023/12/01 01:26:43;;;;;;;18.48;12.02;;;;;;;2.37;100.00;91189.25;2581155;22;20490;-82
2023/12/01 01:27:45;;;;;;;20.73;11.98;;;;;;;2.44;100.00;91193.59;2581187;23;20012;-83
2023/12/01 01:28:46;;;;;;;18.05;11.35;;;;;;;2.45;100.00;91198.44;2581802;22;20073;-84
2023/12/01 01:29:47;;;;;;;16.35;11.30;;;;;;;2.46;100.00;91197.31;2581731;23;20547;-82
2023/12/01 01:30:48;;;;;;;16.70;10.07;;;;;;;2.47;100.00;91195.41;2569258;22;20028;-83
2023/12/01 01:31:48;;;;;;;17.67;10.82;;;;;;;2.57;100.00;91196.31;2581032;22;20343;-83
2023/12/01 01:32:49;;;;;;;15.18;9.80;;;;;;;2.50;100.00;91186.66;2568978;22;20011;-82
2023/12/01 01:33:50;;;;;;;24.52;18.00;;;;;;;2.58;100.00;91197.81;2581171;22;20655;-84
2023/12/01 01:34:51;;;;;;;22.42;16.08;;;;;;;2.44;100.00;91188.31;2593946;22;20019;-83
2023/12/01 01:35:52;;;;;;;20.75;14.45;;;;;;;2.03;100.00;91196.75;2581360;22;20463;-85
2023/12/01 01:36:53;;;;;;;20.27;13.95;;;;;;;1.98;100.00;91198.72;2568671;22;20482;-85
2023/12/01 01:37:54;;;;;;;21.45;12.55;;;;;;;2.03;100.00;91204.66;2593599;22;20497;-84
2023/12/01 01:38:55;;;;;;;20.20;12.75;;;;;;;2.14;100.00;91205.91;2594103;22;19999;-83
2023/12/01 01:39:56;;;;;;;22.02;12.18;;;;;;;2.03;100.00;91202.03;2568749;23;20008;-85
2023/12/01 01:40:57;;;;;;;18.48;11.30;;;;;;;2.15;100.00;91198.75;2581377;22;20031;-85
2023/12/01 01:42:00;;;;;;;18.17;11.45;;;;;;;2.19;100.00;91205.41;2591761;22;20811;-83
2023/12/01 01:43:02;;;;;;;18.58;11.68;;;;;;;2.33;100.00;91203.63;2593228;22;20008;-84
2023/12/01 01:44:03;;;;;;;18.17;11.55;;;;;;;2.45;100.00;91205.63;2593433;22;20025;-84
2023/12/01 01:45:05;;;;;;;18.08;11.15;;;;;;;2.37;100.00;91204.28;2522389;22;20012;-83
2023/12/01 01:46:09;;;;;;;15.35;11.07;;;;;;;2.41;100.00;91216.25;2514058;22;20067;-85
2023/12/01 01:47:10;;;;;;;11.88;8.70;;;;;;;2.40;100.00;91211.38;2508674;22;20039;-84
2023/12/01 01:48:11;;;;;;;14.10;8.70;;;;;;;2.27;100.00;91213.91;2512985;22;20023;-83
2023/12/01 01:49:12;;;;;;;12.23;8.55;;;;;;;2.31;100.00;91216.50;2514209;23;20483;-82
2023/12/01 01:50:13;;;;;;;14.23;9.48;;;;;;;2.39;100.00;91213.28;2517000;22;20009;-84
2023/12/01 01:51:15;;;;;;;17.02;9.98;;;;;;;2.35;100.00;91211.88;2520029;23;20024;-84
2023/12/01 01:52:18;;;;;;;13.32;8.52;;;;;;;2.23;100.00;91215.88;2527752;22;20034;-84
2023/12/01 01:53:19;;;;;;;11.63;8.27;;;;;;;2.12;100.00;91216.13;2528784;22;20001;-84
2023/12/01 01:54:24;;;;;;;13.00;8.48;;;;;;;2.09;100.00;91210.94;2544157;22;20007;-83
2023/12/01 01:55:25;;;;;;;14.70;9.40;;;;;;;2.17;100.00;91220.19;2536526;22;20071;-82
2023/12/01 01:56:29;;;;;;;12.45;8.77;;;;;;;2.21;100.00;91210.31;2547998;22;20070;-83
2023/12/01 01:57:39;;;;;;;13.85;9.00;;;;;;;2.25;100.00;91214.34;2560933;22;20751;-82
2023/12/01 01:58:41;;;;;;;13.57;9.82;;;;;;;2.32;100.00;91220.59;2568230;22;20008;-83
2023/12/01 01:59:45;;;;;;;12.55;9.75;;;;;;;2.21;100.00;91212.94;2569669;22;20008;-84
2023/12/01 02:00:49;;;;;;;15.45;9.88;;;;;;;2.21;100.00;91216.31;2585719;22;20060;-84
2023/12/01 02:01:51;;;;;;;14.88;10.10;;;;;;;2.21;100.00;91213.69;2586087;22;20004;-83
2023/12/01 02:02:53;;;;;;;14.77;10.07;;;;;;;2.25;100.00;91218.88;2564061;22;20004;-84
2023/12/01 02:03:54;;;;;;;14.18;9.35;;;;;;;2.17;100.00;91217.53;2580257;22;20024;-84
2023/12/01 02:04:55;;;;;;;14.93;9.48;;;;;;;2.17;100.00;91223.53;2594051;22;20062;-82
2023/12/01 02:05:57;;;;;;;14.57;9.32;;;;;;;2.14;100.00;91223.63;2581130;22;20529;-83
2023/12/01 02:07:08;;;;;;;14.98;9.23;;;;;;;2.16;100.00;91221.34;2580953;22;20328;-83
2023/12/01 02:08:27;;;;;;;12.00;8.75;;;;;;;2.17;100.00;91220.19;2581863;22;20000;-84
2023/12/01 02:09:33;;;;;;;12.20;8.40;;;;;;;2.10;100.00;91217.69;2576466;22;20015;-86
2023/12/01 02:10:34;;;;;;;12.25;8.15;;;;;;;1.90;100.00;91229.00;2583749;22;20756;-84
2023/12/01 02:11:35;;;;;;;13.63;9.13;;;;;;;2.05;100.00;91226.81;2581321;22;20000;-86
2023/12/01 02:12:36;;;;;;;12.10;8.63;;;;;;;2.29;100.00;91230.09;2568919;23;20054;-83
2023/12/01 02:13:38;;;;;;;11.55;8.23;;;;;;;2.38;100.00;91225.00;2581437;22;20079;-83
2023/12/01 02:14:40;;;;;;;12.27;8.60;;;;;;;2.40;100.00;91225.31;2580681;22;20008;-82
2023/12/01 02:15:42;;;;;;;11.00;8.10;;;;;;;2.22;100.00;91223.06;2593815;22;20003;-84
2023/12/01 02:16:46;;;;;;;15.05;9.48;;;;;;;2.11;100.00;91227.06;2593624;22;20011;-84
2023/12/01 02:17:48;;;;;;;14.35;8.80;;;;;;;2.17;100.00;91228.81;2569919;22;20000;-83
2023/12/01 02:18:51;;;;;;;16.70;10.10;;;;;;;2.12;100.00;91233.84;2568812;22;20011;-82
2023/12/01 02:19:52;;;;;;;14.57;9.57;;;;;;;2.20;100.00;91235.19;2568887;22;20004;-83
2023/12/01 02:20:54;;;;;;;11.68;8.13;;;;;;;2.12;100.00;91237.22;2569088;23;20416;-84
2023/12/01 02:21:55;;;;;;;10.50;7.88;;;;;;;2.11;100.00;91227.81;2569314;22;20031;-84
